sensor_id;sensor_type;location;lat;lon;timestamp;pressure;altitude;pressure_sealevel;temperature;humidity
15074;BME280;7636;63.884;20.308;2023-03-18T00:00:12;62517.47;;;0.35;100.00
15074;BME280;7636;63.884;20.308;2023-03-18T00:02:42;62512.72;;;0.24;100.00
15074;BME280;7636;63.884;20.308;2023-03-18T00:05:10;62536.34;;;0.50;100.00
15074;BME280;7636;63.884;20.308;2023-03-18T00:07:37;62519.25;;;0.39;100.00
15074;BME280;7636;63.884;20.308;2023-03-18T00:10:06;62522.34;;;0.40;100.00
15074;BME280;7636;63.884;20.308;2023-03-18T00:12:32;62509.75;;;0.26;100.00
15074;BME280;7636;63.884;20.308;2023-03-18T00:14:59;62525.09;;;0.42;100.00
15074;BME280;7636;63.884;20.308;2023-03-18T00:17:27;62526.03;;;0.31;100.00
15074;BME280;7636;63.884;20.308;2023-03-18T00:19:54;62520.63;;;0.26;100.00
15074;BME280;7636;63.884;20.308;2023-03-18T00:22:21;62543.28;;;0.55;100.00
15074;BME280;7636;63.884;20.308;2023-03-18T00:24:48;62516.38;;;0.34;100.00
15074;BME280;7636;63.884;20.308;2023-03-18T00:27:15;62526.16;;;0.43;100.00
15074;BME280;7636;63.884;20.308;2023-03-18T00:29:42;62518.28;;;0.31;100.00
15074;BME280;7636;63.884;20.308;2023-03-18T00:32:09;62515.72;;;0.31;100.00
15074;BME280;7636;63.884;20.308;2023-03-18T00:34:36;62507.16;;;0.26;100.00
15074;BME280;7636;63.884;20.308;2023-03-18T00:37:03;62525.47;;;0.40;100.00
15074;BME280;7636;63.884;20.308;2023-03-18T00:39:30;62532.69;;;0.49;100.00
15074;BME280;7636;63.884;20.308;2023-03-18T00:41:59;62534.19;;;0.48;100.00
15074;BME280;7636;63.884;20.308;2023-03-18T00:44:33;62504.44;;;0.23;100.00
15074;BME280;7636;63.884;20.308;2023-03-18T00:47:00;62514.34;;;0.35;100.00
15074;BME280;7636;63.884;20.308;2023-03-18T00:49:27;62543.69;;;0.52;100.00
15074;BME280;7636;63.884;20.308;2023-03-18T00:51:53;62522.91;;;0.40;100.00
15074;BME280;7636;63.884;20.308;2023-03-18T00:54:20;62524.00;;;0.41;100.00
15074;BME280;7636;63.884;20.308;2023-03-18T00:56:47;62513.13;;;0.31;100.00
15074;BME280;7636;63.884;20.308;2023-03-18T00:59:15;62552.66;;;0.56;100.00
15074;BME280;7636;63.884;20.308;2023-03-18T01:01:42;62527.38;;;0.37;100.00
15074;BME280;7636;63.884;20.308;2023-03-18T01:04:09;62558.06;;;0.71;100.00
15074;BME280;7636;63.884;20.308;2023-03-18T01:06:36;62549.09;;;0.58;100.00
15074;BME280;7636;63.884;20.308;2023-03-18T01:09:05;62574.78;;;0.84;100.00
15074;BME280;7636;63.884;20.308;2023-03-18T01:11:32;62561.19;;;0.71;100.00
15074;BME280;7636;63.884;20.308;2023-03-18T01:13:59;62577.91;;;0.84;100.00
15074;BME280;7636;63.884;20.308;2023-03-18T01:16:26;62549.09;;;0.67;100.00
15074;BME280;7636;63.884;20.308;2023-03-18T01:18:53;62579.78;;;0.91;100.00
15074;BME280;7636;63.884;20.308;2023-03-18T01:21:20;62593.94;;;0.94;100.00
15074;BME280;7636;63.884;20.308;2023-03-18T01:23:47;62609.00;;;1.16;100.00
15074;BME280;7636;63.884;20.308;2023-03-18T01:26:14;62605.88;;;1.15;100.00
15074;BME280;7636;63.884;20.308;2023-03-18T01:28:42;62565.66;;;0.78;100.00
15074;BME280;7636;63.884;20.308;2023-03-18T01:31:09;62603.69;;;1.13;100.00
15074;BME280;7636;63.884;20.308;2023-03-18T01:33:38;62607.66;;;1.19;100.00
15074;BME280;7636;63.884;20.308;2023-03-18T01:36:06;62608.59;;;1.18;100.00
15074;BME280;7636;63.884;20.308;2023-03-18T01:38:33;62609.00;;;1.16;100.00
15074;BME280;7636;63.884;20.308;2023-03-18T01:41:00;62606.00;;;1.18;100.00
15074;BME280;7636;63.884;20.308;2023-03-18T01:43:31;62576.13;;;0.90;100.00
15074;BME280;7636;63.884;20.308;2023-03-18T01:46:00;62633.59;;;1.31;100.00
15074;BME280;7636;63.884;20.308;2023-03-18T01:48:30;62614.44;;;1.21;100.00
15074;BME280;7636;63.884;20.308;2023-03-18T01:51:05;62616.75;;;1.16;100.00
15074;BME280;7636;63.884;20.308;2023-03-18T01:53:44;62615.66;;;1.24;100.00
15074;BME280;7636;63.884;20.308;2023-03-18T01:56:12;62583.59;;;0.94;100.00
15074;BME280;7636;63.884;20.308;2023-03-18T01:58:42;62641.75;;;1.39;100.00
15074;BME280;7636;63.884;20.308;2023-03-18T02:01:19;62630.88;;;1.38;100.00
15074;BME280;7636;63.884;20.308;2023-03-18T02:03:49;62618.91;;;1.27;100.00
15074;BME280;7636;63.884;20.308;2023-03-18T02:06:16;62612.41;;;1.21;100.00
15074;BME280;7636;63.884;20.308;2023-03-18T02:08:43;62645.56;;;1.42;100.00
15074;BME280;7636;63.884;20.308;2023-03-18T02:11:10;62616.31;;;1.27;100.00
15074;BME280;7636;63.884;20.308;2023-03-18T02:13:40;62641.75;;;1.48;100.00
15074;BME280;7636;63.884;20.308;2023-03-18T02:16:13;62623.25;;;1.31;100.00
15074;BME280;7636;63.884;20.308;2023-03-18T02:18:51;62635.63;;;1.40;100.00
15074;BME280;7636;63.884;20.308;2023-03-18T02:21:53;62639.56;;;1.46;100.00
15074;BME280;7636;63.884;20.308;2023-03-18T02:25:11;62644.59;;;1.53;100.00
15074;BME280;7636;63.884;20.308;2023-03-18T02:27:39;62645.00;;;1.51;100.00
15074;BME280;7636;63.884;20.308;2023-03-18T02:30:32;62642.28;;;1.49;100.00
15074;BME280;7636;63.884;20.308;2023-03-18T02:32:58;62634.13;;;1.41;100.00
15074;BME280;7636;63.884;20.308;2023-03-18T02:35:27;62643.91;;;1.50;100.00
15074;BME280;7636;63.884;20.308;2023-03-18T02:37:55;62605.88;;;1.15;100.00
15074;BME280;7636;63.884;20.308;2023-03-18T02:40:25;62636.84;;;1.44;100.00
15074;BME280;7636;63.884;20.308;2023-03-18T02:42:52;62640.09;;;1.47;100.00
15074;BME280;7636;63.884;20.308;2023-03-18T02:45:34;62623.81;;;1.32;100.00
15074;BME280;7636;63.884;20.308;2023-03-18T02:48:05;62620.00;;;1.28;100.00
15074;BME280;7636;63.884;20.308;2023-03-18T02:50:33;62645.00;;;1.51;100.00
15074;BME280;7636;63.884;20.308;2023-03-18T02:53:01;62658.03;;;1.64;100.00
15074;BME280;7636;63.884;20.308;2023-03-18T02:55:29;62636.16;;;1.41;100.00
15074;BME280;7636;63.884;20.308;2023-03-18T02:57:56;62636.72;;;1.41;100.00
15074;BME280;7636;63.884;20.308;2023-03-18T03:00:23;62649.34;;;1.55;100.00
15074;BME280;7636;63.884;20.308;2023-03-18T03:02:49;62638.50;;;1.45;100.00
15074;BME280;7636;63.884;20.308;2023-03-18T03:05:16;62659.13;;;1.65;100.00
15074;BME280;7636;63.884;20.308;2023-03-18T03:07:43;62663.06;;;1.71;100.00
15074;BME280;7636;63.884;20.308;2023-03-18T03:10:10;62650.72;;;1.52;100.00
15074;BME280;7636;63.884;20.308;2023-03-18T03:12:37;62662.94;;;1.68;100.00
15074;BME280;7636;63.884;20.308;2023-03-18T03:15:05;62657.66;;;1.66;100.00
15074;BME280;7636;63.884;20.308;2023-03-18T03:17:33;62639.72;;;1.49;100.00
15074;BME280;7636;63.884;20.308;2023-03-18T03:20:01;62664.59;;;1.60;100.00
15074;BME280;7636;63.884;20.308;2023-03-18T03:22:32;62672.75;;;1.68;100.00
15074;BME280;7636;63.884;20.308;2023-03-18T03:25:00;62663.50;;;1.69;100.00
15074;BME280;7636;63.884;20.308;2023-03-18T03:27:27;62653.44;;;1.54;100.00
15074;BME280;7636;63.884;20.308;2023-03-18T03:29:54;62658.03;;;1.64;100.00
15074;BME280;7636;63.884;20.308;2023-03-18T03:32:21;62639.03;;;1.36;100.00
15074;BME280;7636;63.884;20.308;2023-03-18T03:34:48;62650.84;;;1.54;100.00
15074;BME280;7636;63.884;20.308;2023-03-18T03:37:15;62658.03;;;1.64;100.00
15074;BME280;7636;63.884;20.308;2023-03-18T03:39:42;62643.09;;;1.54;100.00
15074;BME280;7636;63.884;20.308;2023-03-18T03:42:10;62638.50;;;1.45;100.00
15074;BME280;7636;63.884;20.308;2023-03-18T03:44:36;62646.78;;;1.55;100.00
15074;BME280;7636;63.884;20.308;2023-03-18T03:47:03;62666.88;;;1.74;100.00
15074;BME280;7636;63.884;20.308;2023-03-18T03:49:30;62668.50;;;1.76;100.00
15074;BME280;7636;63.884;20.308;2023-03-18T03:51:56;62671.63;;;1.76;100.00
15074;BME280;7636;63.884;20.308;2023-03-18T03:54:23;62639.00;;;1.46;100.00
15074;BME280;7636;63.884;20.308;2023-03-18T03:56:51;62664.03;;;1.69;100.00
15074;BME280;7636;63.884;20.308;2023-03-18T03:59:18;62659.16;;;1.55;100.00
15074;BME280;7636;63.884;20.308;2023-03-18T04:01:45;62667.81;;;1.73;100.00
15074;BME280;7636;63.884;20.308;2023-03-18T04:04:12;62652.19;;;1.61;100.00
15074;BME280;7636;63.884;20.308;2023-03-18T04:06:39;62675.72;;;1.75;100.00
15074;BME280;7636;63.884;20.308;2023-03-18T04:09:05;62638.06;;;1.47;100.00
15074;BME280;7636;63.884;20.308;2023-03-18T04:11:32;62676.97;;;1.79;100.00
15074;BME280;7636;63.884;20.308;2023-03-18T04:13:59;62670.00;;;1.75;100.00
15074;BME280;7636;63.884;20.308;2023-03-18T04:16:26;62662.41;;;1.68;100.00
15074;BME280;7636;63.884;20.308;2023-03-18T04:18:53;62650.72;;;1.52;100.00
15074;BME280;7636;63.884;20.308;2023-03-18T04:21:19;62661.44;;;1.69;100.00
15074;BME280;7636;63.884;20.308;2023-03-18T04:23:46;62684.16;;;1.88;100.00
15074;BME280;7636;63.884;20.308;2023-03-18T04:26:13;62670.97;;;1.73;100.00
15074;BME280;7636;63.884;20.308;2023-03-18T04:28:40;62667.28;;;1.63;100.00
15074;BME280;7636;63.884;20.308;2023-03-18T04:31:07;62678.44;;;1.87;100.00
15074;BME280;7636;63.884;20.308;2023-03-18T04:33:34;62673.94;;;1.81;100.00
15074;BME280;7636;63.884;20.308;2023-03-18T04:36:00;62678.19;;;1.82;100.00
15074;BME280;7636;63.884;20.308;2023-03-18T04:38:27;62677.22;;;1.84;100.00
15074;BME280;7636;63.884;20.308;2023-03-18T04:40:54;62696.09;;;1.99;100.00
15074;BME280;7636;63.884;20.308;2023-03-18T04:43:21;62693.41;;;1.87;100.00
15074;BME280;7636;63.884;20.308;2023-03-18T04:45:48;62647.72;;;1.54;100.00
15074;BME280;7636;63.884;20.308;2023-03-18T04:48:15;62680.34;;;1.84;100.00
15074;BME280;7636;63.884;20.308;2023-03-18T04:50:42;62673.81;;;1.78;100.00
15074;BME280;7636;63.884;20.308;2023-03-18T04:53:09;62690.69;;;1.94;100.00
15074;BME280;7636;63.884;20.308;2023-03-18T04:55:36;62676.53;;;1.81;100.00
15074;BME280;7636;63.884;20.308;2023-03-18T04:58:04;62687.41;;;1.91;100.00
15074;BME280;7636;63.884;20.308;2023-03-18T05:00:31;62681.97;;;1.86;100.00
15074;BME280;7636;63.884;20.308;2023-03-18T05:02:57;62687.44;;;1.81;100.00
15074;BME280;7636;63.884;20.308;2023-03-18T05:05:24;62675.72;;;1.75;100.00
15074;BME280;7636;63.884;20.308;2023-03-18T05:07:51;62679.28;;;1.74;100.00
15074;BME280;7636;63.884;20.308;2023-03-18T05:10:18;62666.75;;;1.72;100.00
15074;BME280;7636;63.884;20.308;2023-03-18T05:12:45;62670.69;;;1.78;100.00
15074;BME280;7636;63.884;20.308;2023-03-18T05:15:11;62690.13;;;1.93;100.00
15074;BME280;7636;63.884;20.308;2023-03-18T05:17:40;62715.16;;;2.07;100.00
15074;BME280;7636;63.884;20.308;2023-03-18T05:20:08;62706.31;;;2.06;100.00
15074;BME280;7636;63.884;20.308;2023-03-18T05:22:36;62710.25;;;2.12;100.00
15074;BME280;7636;63.884;20.308;2023-03-18T05:25:22;62684.69;;;1.88;100.00
15074;BME280;7636;63.884;20.308;2023-03-18T05:27:49;62650.44;;;1.56;100.00
15074;BME280;7636;63.884;20.308;2023-03-18T05:30:16;62701.56;;;1.94;100.00
15074;BME280;7636;63.884;20.308;2023-03-18T05:32:42;62667.97;;;1.75;100.00
15074;BME280;7636;63.884;20.308;2023-03-18T05:35:10;62682.53;;;1.77;100.00
15074;BME280;7636;63.884;20.308;2023-03-18T05:37:36;62692.84;;;1.86;100.00
15074;BME280;7636;63.884;20.308;2023-03-18T05:40:04;62687.41;;;1.91;100.00
15074;BME280;7636;63.884;20.308;2023-03-18T05:42:36;62696.94;;;1.95;100.00
15074;BME280;7636;63.884;20.308;2023-03-18T05:45:20;62662.28;;;1.65;100.00
15074;BME280;7636;63.884;20.308;2023-03-18T05:47:47;62697.63;;;1.98;100.00
15074;BME280;7636;63.884;20.308;2023-03-18T05:50:15;62698.84;;;2.01;100.00
15074;BME280;7636;63.884;20.308;2023-03-18T05:52:42;62704.81;;;2.07;100.00
15074;BME280;7636;63.884;20.308;2023-03-18T05:55:12;62671.09;;;1.76;100.00
15074;BME280;7636;63.884;20.308;2023-03-18T05:57:39;62701.56;;;2.04;100.00
15074;BME280;7636;63.884;20.308;2023-03-18T06:00:07;62708.06;;;2.10;100.00
15074;BME280;7636;63.884;20.308;2023-03-18T06:02:34;62691.78;;;1.85;100.00
15074;BME280;7636;63.884;20.308;2023-03-18T06:05:01;62704.28;;;2.06;100.00
15074;BME280;7636;63.884;20.308;2023-03-18T06:07:27;62692.44;;;1.98;100.00
15074;BME280;7636;63.884;20.308;2023-03-18T06:09:54;62667.31;;;1.72;100.00
15074;BME280;7636;63.884;20.308;2023-03-18T06:12:21;62713.25;;;2.10;100.00
15074;BME280;7636;63.884;20.308;2023-03-18T06:14:53;62683.59;;;1.87;100.00
15074;BME280;7636;63.884;20.308;2023-03-18T06:17:20;62692.44;;;1.98;100.00
15074;BME280;7636;63.884;20.308;2023-03-18T06:19:47;62666.47;;;1.67;100.00
15074;BME280;7636;63.884;20.308;2023-03-18T06:22:14;62675.44;;;1.80;100.00
15074;BME280;7636;63.884;20.308;2023-03-18T06:24:43;62707.13;;;2.12;100.00
15074;BME280;7636;63.884;20.308;2023-03-18T06:27:13;62691.34;;;1.97;100.00
15074;BME280;7636;63.884;20.308;2023-03-18T06:29:40;62674.38;;;1.79;100.00
15074;BME280;7636;63.884;20.308;2023-03-18T06:32:07;62698.41;;;2.03;100.00
15074;BME280;7636;63.884;20.308;2023-03-18T06:34:33;62696.66;;;1.99;100.00
15074;BME280;7636;63.884;20.308;2023-03-18T06:37:02;62705.91;;;2.08;100.00
15074;BME280;7636;63.884;20.308;2023-03-18T06:39:29;62695.03;;;1.98;100.00
15074;BME280;7636;63.884;20.308;2023-03-18T06:41:56;62704.81;;;2.07;100.00
15074;BME280;7636;63.884;20.308;2023-03-18T06:44:23;62720.63;;;2.12;100.00
15074;BME280;7636;63.884;20.308;2023-03-18T06:46:50;62713.09;;;2.17;100.00
15074;BME280;7636;63.884;20.308;2023-03-18T06:49:17;62702.38;;;2.00;100.00
15074;BME280;7636;63.884;20.308;2023-03-18T06:51:44;62714.19;;;2.18;100.00
15074;BME280;7636;63.884;20.308;2023-03-18T06:54:10;62712.44;;;2.14;100.00
15074;BME280;7636;63.884;20.308;2023-03-18T06:56:37;62699.50;;;2.04;100.00
15074;BME280;7636;63.884;20.308;2023-03-18T06:59:05;62671.63;;;1.76;100.00
15074;BME280;7636;63.884;20.308;2023-03-18T07:01:33;62706.47;;;2.08;100.00
15074;BME280;7636;63.884;20.308;2023-03-18T07:04:02;62702.22;;;2.07;100.00
15074;BME280;7636;63.884;20.308;2023-03-18T07:06:29;62727.25;;;2.30;100.00
15074;BME280;7636;63.884;20.308;2023-03-18T07:08:56;62709.16;;;2.11;100.00
15074;BME280;7636;63.884;20.308;2023-03-18T07:11:23;62710.53;;;2.07;100.00
15074;BME280;7636;63.884;20.308;2023-03-18T07:13:50;62713.38;;;2.13;100.00
15074;BME280;7636;63.884;20.308;2023-03-18T07:16:18;62709.16;;;2.11;100.00
15074;BME280;7636;63.884;20.308;2023-03-18T07:18:45;62713.81;;;2.11;100.00
15074;BME280;7636;63.884;20.308;2023-03-18T07:21:12;62701.00;;;2.03;100.00
15074;BME280;7636;63.884;20.308;2023-03-18T07:23:39;62718.97;;;2.20;100.00
15074;BME280;7636;63.884;20.308;2023-03-18T07:26:06;62726.44;;;2.25;100.00
15074;BME280;7636;63.884;20.308;2023-03-18T07:28:34;62695.03;;;1.98;100.00
15074;BME280;7636;63.884;20.308;2023-03-18T07:31:01;62705.91;;;2.08;100.00
15074;BME280;7636;63.884;20.308;2023-03-18T07:33:27;62709.16;;;2.11;100.00
15074;BME280;7636;63.884;20.308;2023-03-18T07:35:54;62680.47;;;1.87;100.00
15074;BME280;7636;63.884;20.308;2023-03-18T07:38:22;62720.63;;;2.12;100.00
15074;BME280;7636;63.884;20.308;2023-03-18T07:40:49;62729.84;;;2.21;100.00
15074;BME280;7636;63.884;20.308;2023-03-18T07:43:16;62728.88;;;2.32;100.00
15074;BME280;7636;63.884;20.308;2023-03-18T07:45:43;62733.09;;;2.33;100.00
15074;BME280;7636;63.884;20.308;2023-03-18T07:48:09;62728.88;;;2.32;100.00
15074;BME280;7636;63.884;20.308;2023-03-18T07:50:36;62744.56;;;2.34;100.00
15074;BME280;7636;63.884;20.308;2023-03-18T07:53:03;62724.94;;;2.26;100.00
15074;BME280;7636;63.884;20.308;2023-03-18T07:55:30;62738.69;;;2.41;100.00
15074;BME280;7636;63.884;20.308;2023-03-18T07:57:57;62734.88;;;2.37;100.00
15074;BME280;7636;63.884;20.308;2023-03-18T08:00:24;62738.13;;;2.40;100.00
15074;BME280;7636;63.884;20.308;2023-03-18T08:02:51;62767.41;;;2.65;100.00
15074;BME280;7636;63.884;20.308;2023-03-18T08:05:18;62720.59;;;2.22;100.00
15074;BME280;7636;63.884;20.308;2023-03-18T08:07:45;62758.69;;;2.57;100.00
15074;BME280;7636;63.884;20.308;2023-03-18T08:10:11;62739.34;;;2.44;100.00
15074;BME280;7636;63.884;20.308;2023-03-18T08:12:41;62759.78;;;2.48;100.00
15074;BME280;7636;63.884;20.308;2023-03-18T08:15:19;62732.00;;;2.32;100.00
15074;BME280;7636;63.884;20.308;2023-03-18T08:17:47;62745.09;;;2.44;100.00
15074;BME280;7636;63.884;20.308;2023-03-18T08:20:14;62761.94;;;2.60;100.00
15074;BME280;7636;63.884;20.308;2023-03-18T08:22:41;62693.38;;;1.96;100.00
15074;BME280;7636;63.884;20.308;2023-03-18T08:25:08;62762.50;;;2.60;100.00
15074;BME280;7636;63.884;20.308;2023-03-18T08:27:35;62749.44;;;2.48;100.00
15074;BME280;7636;63.884;20.308;2023-03-18T08:30:01;62757.03;;;2.55;100.00
15074;BME280;7636;63.884;20.308;2023-03-18T08:32:29;62750.50;;;2.49;100.00
15074;BME280;7636;63.884;20.308;2023-03-18T08:34:56;62777.47;;;2.70;100.00
15074;BME280;7636;63.884;20.308;2023-03-18T08:37:23;62761.00;;;2.62;100.00
15074;BME280;7636;63.884;20.308;2023-03-18T08:39:50;62789.72;;;2.76;100.00
15074;BME280;7636;63.884;20.308;2023-03-18T08:42:16;62782.63;;;2.79;100.00
15074;BME280;7636;63.884;20.308;2023-03-18T08:44:44;62797.34;;;2.83;100.00
15074;BME280;7636;63.884;20.308;2023-03-18T08:47:11;62794.63;;;2.81;100.00
15074;BME280;7636;63.884;20.308;2023-03-18T08:49:38;62782.75;;;2.82;100.00
15074;BME280;7636;63.884;20.308;2023-03-18T08:52:04;62798.41;;;2.94;100.00
15074;BME280;7636;63.884;20.308;2023-03-18T08:54:32;62809.97;;;3.07;100.00
15074;BME280;7636;63.884;20.308;2023-03-18T08:56:58;62794.72;;;2.93;100.00
15074;BME280;7636;63.884;20.308;2023-03-18T08:59:26;62817.47;;;3.02;100.00
15074;BME280;7636;63.884;20.308;2023-03-18T09:01:52;62817.59;;;3.14;100.00
15074;BME280;7636;63.884;20.308;2023-03-18T09:04:19;62853.97;;;3.36;100.00
15074;BME280;7636;63.884;20.308;2023-03-18T09:06:47;62815.84;;;3.10;100.00
15074;BME280;7636;63.884;20.308;2023-03-18T09:09:14;62820.75;;;3.15;100.00
15074;BME280;7636;63.884;20.308;2023-03-18T09:11:41;62833.25;;;3.26;100.00
15074;BME280;7636;63.884;20.308;2023-03-18T09:14:08;62834.94;;;3.18;100.00
15074;BME280;7636;63.884;20.308;2023-03-18T09:16:34;62839.00;;;3.27;100.00
15074;BME280;7636;63.884;20.308;2023-03-18T09:19:02;62835.44;;;3.28;100.00
15074;BME280;7636;63.884;20.308;2023-03-18T09:21:29;62833.81;;;3.27;100.00
15074;BME280;7636;63.884;20.308;2023-03-18T09:23:55;62838.72;;;3.31;100.00
15074;BME280;7636;63.884;20.308;2023-03-18T09:26:23;62828.34;;;3.22;100.00
15074;BME280;7636;63.884;20.308;2023-03-18T09:28:50;62839.78;;;3.32;100.00
15074;BME280;7636;63.884;20.308;2023-03-18T09:31:17;62851.81;;;3.34;100.00
15074;BME280;7636;63.884;20.308;2023-03-18T09:33:44;62797.31;;;2.93;100.00
15074;BME280;7636;63.884;20.308;2023-03-18T09:36:12;62849.19;;;3.43;100.00
15074;BME280;7636;63.884;20.308;2023-03-18T09:38:39;62841.16;;;3.29;100.00
15074;BME280;7636;63.884;20.308;2023-03-18T09:50:08;62853.97;;;3.45;100.00
15074;BME280;7636;63.884;20.308;2023-03-18T09:52:21;62894.31;;;3.73;100.00
15074;BME280;7636;63.884;20.308;2023-03-18T09:57:41;62864.44;;;3.57;100.00
15074;BME280;7636;63.884;20.308;2023-03-18T10:00:28;62883.38;;;3.73;100.00
15074;BME280;7636;63.884;20.308;2023-03-18T10:03:04;62877.94;;;3.68;100.00
15074;BME280;7636;63.884;20.308;2023-03-18T10:05:43;62859.53;;;3.53;100.00
15074;BME280;7636;63.884;20.308;2023-03-18T10:08:21;62856.16;;;3.47;100.00
15074;BME280;7636;63.884;20.308;2023-03-18T10:10:49;62865.69;;;3.51;100.00
15074;BME280;7636;63.884;20.308;2023-03-18T10:13:30;62898.66;;;3.87;100.00
15074;BME280;7636;63.884;20.308;2023-03-18T10:16:00;62876.28;;;3.66;100.00
15074;BME280;7636;63.884;20.308;2023-03-18T10:18:36;62909.00;;;3.96;100.00
15074;BME280;7636;63.884;20.308;2023-03-18T10:29:06;62892.50;;;3.79;100.00
15074;BME280;7636;63.884;20.308;2023-03-18T10:34:22;62865.53;;;3.58;100.00
15074;BME280;7636;63.884;20.308;2023-03-18T10:37:31;62869.88;;;3.62;100.00
15074;BME280;7636;63.884;20.308;2023-03-18T10:39:52;62862.13;;;3.53;100.00
15074;BME280;7636;63.884;20.308;2023-03-18T10:42:24;62895.41;;;3.74;100.00
15074;BME280;7636;63.884;20.308;2023-03-18T10:44:54;62894.56;;;3.78;100.00
15074;BME280;7636;63.884;20.308;2023-03-18T10:47:32;62897.53;;;3.86;100.00
15074;BME280;7636;63.884;20.308;2023-03-18T10:50:02;62867.16;;;3.60;100.00
15074;BME280;7636;63.884;20.308;2023-03-18T10:52:55;62887.19;;;3.76;100.00
15074;BME280;7636;63.884;20.308;2023-03-18T10:55:28;62864.06;;;3.50;100.00
15074;BME280;7636;63.884;20.308;2023-03-18T10:57:56;62869.22;;;3.59;100.00
15074;BME280;7636;63.884;20.308;2023-03-18T11:00:27;62836.13;;;3.31;100.00
15074;BME280;7636;63.884;20.308;2023-03-18T11:02:55;62893.19;;;3.82;100.00
15074;BME280;7636;63.884;20.308;2023-03-18T11:05:23;62903.53;;;3.91;100.00
15074;BME280;7636;63.884;20.308;2023-03-18T11:08:07;62884.50;;;3.64;100.00
15074;BME280;7636;63.884;20.308;2023-03-18T11:10:51;62860.91;;;3.49;100.00
15074;BME280;7636;63.884;20.308;2023-03-18T11:13:19;62877.41;;;3.67;100.00
15074;BME280;7636;63.884;20.308;2023-03-18T11:15:53;62925.88;;;4.12;100.00
15074;BME280;7636;63.884;20.308;2023-03-18T11:18:24;62945.53;;;4.30;100.00
15074;BME280;7636;63.884;20.308;2023-03-18T11:20:56;62978.66;;;4.58;100.00
15074;BME280;7636;63.884;20.308;2023-03-18T11:23:31;63016.16;;;4.91;100.00
15074;BME280;7636;63.884;20.308;2023-03-18T11:26:23;62957.50;;;4.41;100.00
15074;BME280;7636;63.884;20.308;2023-03-18T11:28:55;62958.59;;;4.42;100.00
15074;BME280;7636;63.884;20.308;2023-03-18T11:31:22;62993.00;;;4.64;100.00
15074;BME280;7636;63.884;20.308;2023-03-18T11:33:56;62991.34;;;4.73;100.00
15074;BME280;7636;63.884;20.308;2023-03-18T11:36:23;62985.88;;;4.67;100.00
15074;BME280;7636;63.884;20.308;2023-03-18T11:39:02;63013.16;;;4.93;100.00
15074;BME280;7636;63.884;20.308;2023-03-18T11:41:29;63049.16;;;5.26;100.00
15074;BME280;7636;63.884;20.308;2023-03-18T11:44:10;63075.94;;;5.41;100.00
15074;BME280;7636;63.884;20.308;2023-03-18T11:47:06;63113.03;;;5.85;100.00
15074;BME280;7636;63.884;20.308;2023-03-18T11:49:37;63086.41;;;5.63;100.00
15074;BME280;7636;63.884;20.308;2023-03-18T11:58:31;63123.44;;;5.95;100.00
15074;BME280;7636;63.884;20.308;2023-03-18T12:03:51;63024.75;;;5.06;100.00
15074;BME280;7636;63.884;20.308;2023-03-18T12:06:24;63059.53;;;5.36;100.00
15074;BME280;7636;63.884;20.308;2023-03-18T12:09:03;63060.09;;;5.36;100.00
15074;BME280;7636;63.884;20.308;2023-03-18T12:11:45;63052.84;;;5.27;100.00
15074;BME280;7636;63.884;20.308;2023-03-18T12:22:59;63107.03;;;5.80;100.00
15074;BME280;7636;63.884;20.308;2023-03-18T12:45:26;63049.16;;;5.26;100.00
15074;BME280;7636;63.884;20.308;2023-03-18T12:48:03;63060.09;;;5.36;100.00
15074;BME280;7636;63.884;20.308;2023-03-18T12:51:12;63049.16;;;5.26;100.00
15074;BME280;7636;63.884;20.308;2023-03-18T12:53:47;63063.94;;;5.30;100.00
15074;BME280;7636;63.884;20.308;2023-03-18T12:56:21;63028.44;;;4.97;100.00
15074;BME280;7636;63.884;20.308;2023-03-18T12:59:09;63043.56;;;5.18;100.00
15074;BME280;7636;63.884;20.308;2023-03-18T13:01:45;63045.91;;;5.23;100.00
15074;BME280;7636;63.884;20.308;2023-03-18T13:04:18;63009.44;;;4.92;100.00
15074;BME280;7636;63.884;20.308;2023-03-18T13:07:05;62989.69;;;4.71;100.00
15074;BME280;7636;63.884;20.308;2023-03-18T13:12:50;63031.56;;;5.07;100.00
15074;BME280;7636;63.884;20.308;2023-03-18T13:17:56;63050.25;;;5.27;100.00
15074;BME280;7636;63.884;20.308;2023-03-18T13:20:28;63043.19;;;5.11;100.00
15074;BME280;7636;63.884;20.308;2023-03-18T13:37:31;63047.16;;;5.17;100.00
15074;BME280;7636;63.884;20.308;2023-03-18T13:42:37;63016.44;;;4.96;100.00
15074;BME280;7636;63.884;20.308;2023-03-18T13:45:22;63028.97;;;5.07;100.00
15074;BME280;7636;63.884;20.308;2023-03-18T13:48:16;63047.53;;;5.25;100.00
15074;BME280;7636;63.884;20.308;2023-03-18T13:50:49;63058.47;;;5.25;100.00
15074;BME280;7636;63.884;20.308;2023-03-18T13:58:24;63071.00;;;5.46;100.00
15074;BME280;7636;63.884;20.308;2023-03-18T14:03:20;63124.56;;;5.86;100.00
15074;BME280;7636;63.884;20.308;2023-03-18T14:05:50;63124.69;;;5.89;100.00
15074;BME280;7636;63.884;20.308;2023-03-18T14:13:49;63032.38;;;5.13;100.00
15074;BME280;7636;63.884;20.308;2023-03-18T14:16:20;63013.19;;;4.83;100.00
15074;BME280;7636;63.884;20.308;2023-03-18T14:19:05;63019.19;;;4.89;100.00
15074;BME280;7636;63.884;20.308;2023-03-18T14:21:43;62974.84;;;4.55;100.00
15074;BME280;7636;63.884;20.308;2023-03-18T14:32:09;62968.41;;;4.51;100.00
15074;BME280;7636;63.884;20.308;2023-03-18T14:37:28;62946.09;;;4.21;100.00
15074;BME280;7636;63.884;20.308;2023-03-18T14:40:05;62906.94;;;3.97;100.00
15074;BME280;7636;63.884;20.308;2023-03-18T14:42:57;62936.78;;;4.22;100.00
15074;BME280;7636;63.884;20.308;2023-03-18T14:45:30;62916.66;;;3.94;100.00
15074;BME280;7636;63.884;20.308;2023-03-18T14:48:02;62870.31;;;3.60;100.00
15074;BME280;7636;63.884;20.308;2023-03-18T14:50:48;62895.38;;;3.84;100.00
15074;BME280;7636;63.884;20.308;2023-03-18T14:53:49;62871.38;;;3.61;100.00
15074;BME280;7636;63.884;20.308;2023-03-18T14:56:22;62874.78;;;3.67;100.00
15074;BME280;7636;63.884;20.308;2023-03-18T14:58:53;62918.41;;;4.07;100.00
15074;BME280;7636;63.884;20.308;2023-03-18T15:01:39;62914.97;;;4.02;100.00